Terminal Aerodrome Forecast
Issued by NWS

Home | Current Version | Previous Version | Text Only | Print | Product List | Glossary On
Versions: 1 2 3 4 5 6 7 8 9 10 11 12 13 14 15 16 17 18 19 20 21 22 23 24 25 26 27 28 29 30 31
000
FTAK31 PANC 030532
TAFADQ
TAF
PADQ 030532Z 0306/0406 08008KT P6SM -RA OVC035
      TEMPO 0306/0309 6SM -RA BKN012 OVC025
     FM030900 04008KT 5SM -RA BR BKN012 OVC025
     FM031200 05008KT 3SM -RA BR OVC008
     FM031800 12010KT 6SM -SHRA BKN035
     FM040000 04011KT P6SM -RA BKN025
     FM040300 04015KT 4SM -RA SCT005 OVC012=

USA.gov is the U.S. government's official web portal to all federal, state and local government web resources and services.